Brookline, New Hampshire
Current Conditions -  °F | °C
As of 6:51 AM on Friday 24 Oct 2014 (Local Time) from KASH Reporting Station
Light Rain Light Rain  
Wind Chill: 45°   Ceiling: 2200
Heat Index: 49°   Visibility: 5mi
Dew Point: 47°   Wind: 8mph
Humidity: 93%   Direction: 320°NW
Pressure: 29.71"   Gusts: NA
Location:  42.73°N, 71.66°W
Report Text: KASH 241051Z 32007KT 5SM -RA BR BKN022 BKN029 OVC041 09/08 A2971 RMK AO2 T00940083 RAB0953E0955B32 P0000 SLP310 $
Loading
Personal Weather Stations






























Interactive Weather Map New forecast layout! Learn more

10-Day Weather Forecast

Advertisements
Track Severe Weather on mobile